createdAt,value
2022-10-07T00:47:58.291Z,95.83
2022-10-07T00:50:29.345Z,95.62
2022-10-07T00:53:00.230Z,95.97
2022-10-07T00:55:30.675Z,95.92
2022-10-07T00:58:03.863Z,95.96
2022-10-07T01:00:32.925Z,96.00
2022-10-07T01:03:01.834Z,96.43
2022-10-07T01:05:29.696Z,96.42
2022-10-07T01:07:59.299Z,96.76
2022-10-07T01:10:40.420Z,97.35
2022-10-07T01:13:14.517Z,97.05
2022-10-07T01:15:52.064Z,96.91
2022-10-07T01:18:26.384Z,97.29
2022-10-07T01:21:00.576Z,97.51
2022-10-07T01:23:44.218Z,97.72
2022-10-07T01:26:27.289Z,97.25
2022-10-07T01:28:58.852Z,97.21
2022-10-07T01:31:31.839Z,97.07
2022-10-07T01:34:00.730Z,97.22
2022-10-07T01:36:28.912Z,97.39
2022-10-07T01:39:03.775Z,97.46
2022-10-07T01:41:33.585Z,97.41
2022-10-07T01:44:02.569Z,96.94
2022-10-07T01:46:31.209Z,96.74
2022-10-07T01:49:01.455Z,96.50
2022-10-07T01:51:32.932Z,96.71
2022-10-07T01:54:08.895Z,96.73
2022-10-07T01:57:01.611Z,96.46
2022-10-07T01:59:50.497Z,96.41
2022-10-07T02:02:28.617Z,95.97
2022-10-07T02:05:06.816Z,95.38
2022-10-07T02:07:42.138Z,95.53
2022-10-07T02:10:16.693Z,95.62
2022-10-07T02:12:53.521Z,95.77
2022-10-07T02:15:24.627Z,95.88
2022-10-07T02:17:55.571Z,96.62
2022-10-07T02:20:29.176Z,96.13
2022-10-07T02:23:00.633Z,96.15
2022-10-07T02:25:33.098Z,96.18
2022-10-07T02:28:05.439Z,96.19
2022-10-07T02:30:35.765Z,96.26
2022-10-07T02:33:07.107Z,96.18
2022-10-07T02:35:42.757Z,95.93
2022-10-07T02:38:13.319Z,95.79
2022-10-07T02:40:44.761Z,96.64
2022-10-07T02:43:19.868Z,96.39
2022-10-07T02:45:56.842Z,96.19
2022-10-07T02:48:28.851Z,96.64
2022-10-07T02:51:01.787Z,97.17
2022-10-07T02:53:32.066Z,96.93
2022-10-07T02:56:02.452Z,96.95
2022-10-07T02:58:32.125Z,96.56
2022-10-07T03:01:03.263Z,96.63
2022-10-07T03:03:32.502Z,97.07
2022-10-07T03:06:04.541Z,96.89
2022-10-07T03:08:33.064Z,96.65
2022-10-07T03:11:02.495Z,97.15
2022-10-07T03:13:34.004Z,97.32
2022-10-07T03:16:03.962Z,97.03
2022-10-07T03:18:31.676Z,97.07
2022-10-07T03:21:22.559Z,97.00
2022-10-07T03:23:53.334Z,97.26
2022-10-07T03:26:23.169Z,97.63
2022-10-07T03:28:53.483Z,97.70
2022-10-07T03:31:21.543Z,97.40
2022-10-07T03:33:51.932Z,97.26
2022-10-07T03:36:20.768Z,97.42
2022-10-07T03:38:49.037Z,97.48
2022-10-07T03:41:16.733Z,97.70
2022-10-07T03:43:45.334Z,97.85
2022-10-07T03:46:19.500Z,98.12
2022-10-07T03:48:47.528Z,97.44
2022-10-07T03:51:15.696Z,97.67
2022-10-07T03:53:43.247Z,97.89
2022-10-07T03:56:11.850Z,98.04
2022-10-07T03:58:42.011Z,97.71
2022-10-07T04:01:14.946Z,98.13
2022-10-07T04:03:50.992Z,98.05
2022-10-07T04:06:19.455Z,98.04
2022-10-07T04:08:47.272Z,97.70
2022-10-07T04:11:14.828Z,97.33
2022-10-07T04:13:45.061Z,97.35
2022-10-07T04:16:13.478Z,97.05
2022-10-07T04:18:41.803Z,96.41
2022-10-07T04:21:11.737Z,96.66
2022-10-07T04:23:41.656Z,95.35
2022-10-07T04:26:10.644Z,94.99
2022-10-07T04:28:42.426Z,93.65
2022-10-07T04:31:16.938Z,92.26
2022-10-07T04:33:47.761Z,92.20
2022-10-07T04:36:22.205Z,91.28
2022-10-07T04:39:00.672Z,90.88
2022-10-07T04:41:32.364Z,89.74
2022-10-07T04:44:00.849Z,89.44
2022-10-07T04:46:33.448Z,88.95
2022-10-07T04:49:08.712Z,88.46
2022-10-07T04:51:37.868Z,87.87
2022-10-07T04:54:06.725Z,87.40
2022-10-07T04:56:40.897Z,87.73
2022-10-07T04:59:11.524Z,87.53
2022-10-07T05:01:40.346Z,87.47
2022-10-07T05:04:11.536Z,87.22
2022-10-07T05:06:40.472Z,87.48
2022-10-07T05:09:11.156Z,87.64
2022-10-07T05:11:42.095Z,88.29
2022-10-07T05:14:14.641Z,87.99
2022-10-07T05:16:42.399Z,87.70
2022-10-07T05:19:10.400Z,87.85
2022-10-07T05:21:40.095Z,87.64
2022-10-07T05:24:07.704Z,88.02
2022-10-07T05:26:38.007Z,88.48
2022-10-07T05:29:08.175Z,88.37
2022-10-07T05:31:43.959Z,88.40
2022-10-07T05:34:13.569Z,87.76
2022-10-07T05:36:42.656Z,88.26
2022-10-07T05:39:10.535Z,88.56
2022-10-07T05:41:46.147Z,89.14
2022-10-07T05:44:16.980Z,88.93
2022-10-07T05:46:45.091Z,88.83
2022-10-07T05:49:13.996Z,88.67
2022-10-07T05:51:43.624Z,88.35
2022-10-07T05:54:11.446Z,88.76
2022-10-07T05:56:42.437Z,88.32
2022-10-07T05:59:10.382Z,88.28
2022-10-07T06:01:40.375Z,88.30
2022-10-07T06:04:13.218Z,87.94
2022-10-07T06:06:44.982Z,88.48
2022-10-07T06:09:32.000Z,88.41
2022-10-07T06:12:20.968Z,87.94
2022-10-07T06:14:50.295Z,87.71
2022-10-07T06:17:17.944Z,87.64
2022-10-07T06:19:47.360Z,87.75
2022-10-07T06:22:18.200Z,87.95
2022-10-07T06:24:46.212Z,87.42
2022-10-07T06:27:13.894Z,87.30
2022-10-07T06:29:43.087Z,86.36
2022-10-07T06:32:11.168Z,86.27
2022-10-07T06:34:40.236Z,86.42
2022-10-07T06:37:07.800Z,85.12
2022-10-07T06:39:36.733Z,83.96
2022-10-07T06:42:04.664Z,84.29
2022-10-07T06:44:47.485Z,83.93
2022-10-07T06:47:18.400Z,83.85
2022-10-07T06:49:47.248Z,83.21
2022-10-07T06:52:15.061Z,83.22
2022-10-07T06:54:45.080Z,83.72
2022-10-07T06:57:40.523Z,82.46
2022-10-07T07:00:01.704Z,82.29
2022-10-07T07:02:31.929Z,81.83
2022-10-07T07:05:04.372Z,81.78
2022-10-07T07:07:32.000Z,80.90
2022-10-07T07:10:01.562Z,81.17
2022-10-07T07:12:30.982Z,81.26
2022-10-07T07:15:00.185Z,80.67
2022-10-07T07:17:27.758Z,80.59
2022-10-07T07:19:57.136Z,80.50
2022-10-07T07:22:24.951Z,80.32
2022-10-07T07:24:52.969Z,80.02
2022-10-07T07:27:22.392Z,80.13
2022-10-07T07:29:50.186Z,79.67
2022-10-07T07:32:18.248Z,79.28
2022-10-07T07:34:47.472Z,79.37
2022-10-07T07:37:21.144Z,79.93
2022-10-07T07:39:52.438Z,79.25
2022-10-07T07:42:20.877Z,79.09
2022-10-07T07:44:50.190Z,79.15
2022-10-07T07:47:19.188Z,77.60
2022-10-07T07:49:50.909Z,78.15
2022-10-07T07:52:25.543Z,78.02
2022-10-07T07:54:57.821Z,76.91
2022-10-07T07:57:25.775Z,77.18
2022-10-07T07:59:55.594Z,78.12
2022-10-07T08:02:23.944Z,77.21
2022-10-07T08:04:53.782Z,77.13
2022-10-07T08:07:21.714Z,76.84
2022-10-07T08:09:50.899Z,77.02
2022-10-07T08:12:20.953Z,76.27
2022-10-07T08:14:52.125Z,75.74
2022-10-07T08:17:21.909Z,74.18
2022-10-07T08:19:49.553Z,74.76
2022-10-07T08:22:17.601Z,74.62
2022-10-07T08:24:47.278Z,75.10
2022-10-07T08:27:16.617Z,74.51
2022-10-07T08:29:44.185Z,74.52
2022-10-07T08:32:11.825Z,74.38
2022-10-07T08:34:40.680Z,73.60
2022-10-07T08:37:08.285Z,73.07
2022-10-07T08:39:36.503Z,74.35
2022-10-07T08:42:13.172Z,74.31
2022-10-07T08:44:42.616Z,73.39
2022-10-07T08:47:18.705Z,72.86
2022-10-07T08:50:00.560Z,73.38
2022-10-07T08:52:40.343Z,73.23
2022-10-07T08:55:18.503Z,72.93
2022-10-07T08:58:05.312Z,73.30
2022-10-07T09:00:41.771Z,72.58
2022-10-07T09:03:22.845Z,73.36
2022-10-07T09:05:55.548Z,71.54
2022-10-07T09:08:28.616Z,71.73
2022-10-07T09:11:00.335Z,70.59
2022-10-07T09:13:33.528Z,71.70
2022-10-07T09:16:11.218Z,69.88
2022-10-07T09:18:40.942Z,70.75
2022-10-07T09:21:16.643Z,70.77
2022-10-07T09:23:45.950Z,69.14
2022-10-07T09:26:15.036Z,68.65
2022-10-07T09:28:42.665Z,68.52
2022-10-07T09:31:15.060Z,69.07
2022-10-07T09:33:45.550Z,68.99
2022-10-07T09:36:18.972Z,67.53
2022-10-07T09:38:49.834Z,67.62
2022-10-07T09:41:20.636Z,68.16
2022-10-07T09:43:59.219Z,67.16
2022-10-07T09:46:35.085Z,67.46
2022-10-07T09:49:07.117Z,64.48
2022-10-07T09:51:37.774Z,64.47
2022-10-07T09:54:07.313Z,64.15
2022-10-07T09:56:39.971Z,63.26
2022-10-07T09:59:19.624Z,62.35
2022-10-07T10:01:54.481Z,61.97
2022-10-07T10:04:27.784Z,60.58
2022-10-07T10:07:01.955Z,62.02
2022-10-07T10:09:29.656Z,62.40
2022-10-07T10:12:06.939Z,60.01
2022-10-07T10:14:44.943Z,60.28
2022-10-07T10:17:34.501Z,59.64
2022-10-07T10:20:29.768Z,60.04
2022-10-07T10:23:00.043Z,58.26
2022-10-07T10:25:57.297Z,58.13
2022-10-07T10:28:38.239Z,57.94
2022-10-07T10:31:15.247Z,58.62
2022-10-07T10:33:51.084Z,57.86
2022-10-07T10:36:22.489Z,57.89
2022-10-07T10:39:01.524Z,56.43
2022-10-07T10:41:36.096Z,55.68
2022-10-07T10:44:22.769Z,56.27
2022-10-07T10:46:57.120Z,55.58
2022-10-07T10:49:31.044Z,54.12
2022-10-07T10:52:22.624Z,51.35
2022-10-07T10:55:12.504Z,52.90
2022-10-07T10:57:49.748Z,52.48
2022-10-07T11:00:20.581Z,52.93
2022-10-07T11:03:01.579Z,53.10
2022-10-07T11:05:33.038Z,53.39
2022-10-07T11:08:05.686Z,52.13
2022-10-07T11:10:37.008Z,51.41
2022-10-07T11:13:20.240Z,51.00
2022-10-07T11:15:52.751Z,51.08
2022-10-07T11:18:28.227Z,51.10
2022-10-07T11:20:59.588Z,50.13
2022-10-07T11:23:37.766Z,49.12
2022-10-07T11:26:14.983Z,48.69
2022-10-07T11:28:45.562Z,48.19
2022-10-07T11:31:19.236Z,47.39
2022-10-07T11:33:51.405Z,45.42
2022-10-07T11:36:23.732Z,47.03
2022-10-07T11:38:53.420Z,46.09
2022-10-07T11:41:27.388Z,45.65
2022-10-07T11:43:57.131Z,44.34
2022-10-07T11:46:30.166Z,44.50
2022-10-07T11:49:02.721Z,43.33
2022-10-07T11:51:35.192Z,42.62
2022-10-07T11:54:06.438Z,43.20
2022-10-07T11:56:39.199Z,42.46
2022-10-07T11:59:08.370Z,42.59
2022-10-07T12:01:52.301Z,42.60
2022-10-07T12:04:48.875Z,42.59
2022-10-07T12:08:05.303Z,42.89
2022-10-07T12:10:34.045Z,41.87
2022-10-07T12:13:40.124Z,41.76
2022-10-07T12:19:23.832Z,40.33
2022-10-07T12:22:17.696Z,40.12
2022-10-07T12:24:47.219Z,40.75
2022-10-07T12:27:17.477Z,40.01
2022-10-07T12:29:50.104Z,40.27
2022-10-07T12:32:47.334Z,39.42
2022-10-07T12:35:54.407Z,38.49
2022-10-07T12:38:27.909Z,38.30
2022-10-07T12:41:15.344Z,39.59
2022-10-07T12:43:49.504Z,37.45
2022-10-07T12:46:19.978Z,37.99
2022-10-07T12:48:51.897Z,39.02
2022-10-07T12:51:27.073Z,38.63
2022-10-07T12:53:56.853Z,37.71
2022-10-07T12:56:28.117Z,37.46
2022-10-07T12:59:40.484Z,36.31
2022-10-07T13:02:42.389Z,36.96
2022-10-07T13:05:48.834Z,36.72
2022-10-07T13:08:55.098Z,36.38
2022-10-07T13:11:56.704Z,36.50
2022-10-07T13:14:27.949Z,37.81
2022-10-07T13:17:02.626Z,38.76
2022-10-07T13:19:37.276Z,39.44
2022-10-07T13:22:12.734Z,39.33
2022-10-07T13:24:42.324Z,40.08
2022-10-07T13:27:12.455Z,39.69
2022-10-07T13:29:40.288Z,38.78
2022-10-07T13:32:14.889Z,38.60
2022-10-07T13:34:43.408Z,37.54
2022-10-07T13:37:27.008Z,37.33
2022-10-07T13:39:54.703Z,37.08
2022-10-07T13:42:28.552Z,36.20
2022-10-07T13:45:02.133Z,38.82
2022-10-07T13:47:35.608Z,38.20
2022-10-07T13:50:03.634Z,37.99
2022-10-07T13:52:36.916Z,38.38
2022-10-07T13:55:20.831Z,37.27
2022-10-07T13:57:49.968Z,39.02
2022-10-07T14:00:18.216Z,40.24
2022-10-07T14:02:47.290Z,40.39
2022-10-07T14:05:20.817Z,40.57
2022-10-07T14:07:53.555Z,39.26
2022-10-07T14:10:22.693Z,38.72
2022-10-07T14:12:56.585Z,38.93
2022-10-07T14:15:26.988Z,38.74
2022-10-07T14:17:58.588Z,39.00
2022-10-07T14:20:29.213Z,38.28
2022-10-07T14:22:58.795Z,38.83
2022-10-07T14:25:28.906Z,38.20
2022-10-07T14:28:08.997Z,37.07
2022-10-07T14:30:56.868Z,36.01
2022-10-07T14:34:00.956Z,34.36
2022-10-07T14:36:28.583Z,32.62
2022-10-07T14:38:57.996Z,33.28
2022-10-07T14:41:29.543Z,34.83
2022-10-07T14:44:00.037Z,33.27
2022-10-07T14:46:29.369Z,33.59
2022-10-07T14:48:56.981Z,32.61
2022-10-07T14:51:27.310Z,32.22
2022-10-07T14:53:57.827Z,33.27
2022-10-07T14:56:27.657Z,34.29
2022-10-07T14:58:56.257Z,35.04
2022-10-07T15:01:26.509Z,35.97
2022-10-07T15:03:54.073Z,39.08
2022-10-07T15:06:21.842Z,39.47
2022-10-07T15:08:49.961Z,40.61
2022-10-07T15:11:19.244Z,40.18
2022-10-07T15:13:48.377Z,40.39
2022-10-07T15:16:17.878Z,40.39
2022-10-07T15:18:52.127Z,40.12
2022-10-07T15:21:21.026Z,40.17
2022-10-07T15:23:51.833Z,39.42
2022-10-07T15:26:21.234Z,39.56
2022-10-07T15:28:51.320Z,38.87
2022-10-07T15:31:18.999Z,39.15
2022-10-07T15:33:48.429Z,38.47
2022-10-07T15:36:17.634Z,38.38
2022-10-07T15:38:45.208Z,38.52
2022-10-07T15:41:30.216Z,39.11
2022-10-07T15:43:59.102Z,39.50
2022-10-07T15:46:27.738Z,40.33
2022-10-07T15:48:57.289Z,40.45
2022-10-07T15:51:26.118Z,40.28
2022-10-07T15:53:53.717Z,40.26
2022-10-07T15:56:21.759Z,40.12
2022-10-07T15:58:49.424Z,42.60
2022-10-07T16:01:17.040Z,41.39
2022-10-07T16:03:47.849Z,43.54
2022-10-07T16:06:20.595Z,45.56
2022-10-07T16:08:48.342Z,45.76
2022-10-07T16:11:16.315Z,47.18
2022-10-07T16:13:46.845Z,48.28
2022-10-07T16:16:16.155Z,49.99
2022-10-07T16:18:45.907Z,52.50
2022-10-07T16:21:15.250Z,53.52
2022-10-07T16:23:46.743Z,54.68
2022-10-07T16:26:16.132Z,56.38
2022-10-07T16:29:03.193Z,58.54
2022-10-07T16:31:32.302Z,60.24
2022-10-07T16:33:59.987Z,60.91
2022-10-07T16:36:28.051Z,63.01
2022-10-07T16:38:59.609Z,63.36
2022-10-07T16:41:27.429Z,65.26
2022-10-07T16:43:57.176Z,66.58
2022-10-07T16:46:25.042Z,67.54
2022-10-07T16:48:52.931Z,69.47
2022-10-07T16:51:22.052Z,69.30
2022-10-07T16:53:53.735Z,70.54
2022-10-07T16:56:23.478Z,70.19
2022-10-07T16:58:56.382Z,71.94
2022-10-07T17:01:25.378Z,73.04
2022-10-07T17:03:53.941Z,74.63
2022-10-07T17:06:22.690Z,75.24
2022-10-07T17:08:50.445Z,76.14
2022-10-07T17:11:29.492Z,76.40
2022-10-07T17:14:00.332Z,76.79
2022-10-07T17:16:30.027Z,77.04
2022-10-07T17:18:57.681Z,77.72
2022-10-07T17:21:25.320Z,78.11
2022-10-07T17:23:58.089Z,78.61
2022-10-07T17:26:27.453Z,79.51
2022-10-07T17:29:06.447Z,79.53
2022-10-07T17:31:35.375Z,80.68
2022-10-07T17:34:03.626Z,81.35
2022-10-07T17:36:32.108Z,81.72
2022-10-07T17:39:00.250Z,81.86
2022-10-07T17:41:29.633Z,81.25
2022-10-07T17:43:58.664Z,81.70
2022-10-07T17:46:29.232Z,82.69
2022-10-07T17:48:58.297Z,83.78
2022-10-07T17:51:28.487Z,84.79
2022-10-07T17:53:57.159Z,85.58
2022-10-07T17:56:24.716Z,85.96
2022-10-07T17:58:52.279Z,85.83
2022-10-07T18:01:23.739Z,85.95
2022-10-07T18:03:54.769Z,86.57
2022-10-07T18:06:23.663Z,87.16
2022-10-07T18:08:52.053Z,87.68
2022-10-07T18:11:19.725Z,87.77
2022-10-07T18:14:04.824Z,87.92
2022-10-07T18:16:33.267Z,87.54
2022-10-07T18:19:02.655Z,87.94
2022-10-07T18:21:31.891Z,87.92
2022-10-07T18:23:59.483Z,88.27
2022-10-07T18:26:28.834Z,87.85
2022-10-07T18:28:57.450Z,87.86
2022-10-07T18:31:26.249Z,88.26
2022-10-07T18:33:53.906Z,88.65
2022-10-07T18:36:23.735Z,90.02
2022-10-07T18:38:51.288Z,90.38
2022-10-07T18:41:19.543Z,89.76
2022-10-07T18:43:48.016Z,90.52
2022-10-07T18:46:17.657Z,90.76
2022-10-07T18:48:47.873Z,91.21
2022-10-07T18:51:16.048Z,91.25
2022-10-07T18:53:47.463Z,90.95
2022-10-07T18:56:17.057Z,90.96
2022-10-07T18:58:46.544Z,91.58
2022-10-07T19:01:16.340Z,91.86
2022-10-07T19:03:44.856Z,92.55
2022-10-07T19:06:16.335Z,93.16
2022-10-07T19:08:46.015Z,92.44
2022-10-07T19:11:16.508Z,92.92
2022-10-07T19:13:50.804Z,93.17
2022-10-07T19:16:20.639Z,93.11
2022-10-07T19:18:49.456Z,93.41
2022-10-07T19:21:18.934Z,93.27
2022-10-07T19:23:48.497Z,93.56
2022-10-07T19:26:21.098Z,93.85
2022-10-07T19:28:50.103Z,93.52
2022-10-07T19:31:20.168Z,94.05
2022-10-07T19:33:49.959Z,94.20
2022-10-07T19:36:19.280Z,94.03
2022-10-07T19:38:52.277Z,94.18
2022-10-07T19:41:22.496Z,94.51
2022-10-07T19:43:51.744Z,94.45
2022-10-07T19:46:21.060Z,94.49
2022-10-07T19:48:48.551Z,94.90
2022-10-07T19:51:17.848Z,95.12
2022-10-07T19:53:47.185Z,95.20
2022-10-07T19:56:20.096Z,95.31
2022-10-07T19:58:49.083Z,95.21
2022-10-07T20:01:19.348Z,95.11
2022-10-07T20:03:46.897Z,95.32
2022-10-07T20:06:14.843Z,95.24
2022-10-07T20:08:44.388Z,95.44
2022-10-07T20:11:13.584Z,95.59
2022-10-07T20:13:42.659Z,95.58
2022-10-07T20:16:14.576Z,96.00
2022-10-07T20:18:42.239Z,96.26
2022-10-07T20:21:11.838Z,96.31
2022-10-07T20:23:41.128Z,95.87
2022-10-07T20:26:10.291Z,96.24
2022-10-07T20:28:38.554Z,96.41
2022-10-07T20:31:09.619Z,96.62
2022-10-07T20:33:38.860Z,96.80
2022-10-07T20:36:08.115Z,96.84
2022-10-07T20:38:50.087Z,96.90
2022-10-07T20:41:46.651Z,96.28
2022-10-07T20:44:16.362Z,95.97
2022-10-07T20:46:45.632Z,96.20
2022-10-07T20:49:22.649Z,96.26
2022-10-07T20:51:50.628Z,96.12
2022-10-07T20:54:18.623Z,96.09
2022-10-07T20:56:46.844Z,96.65
2022-10-07T20:59:14.616Z,96.28
2022-10-07T21:01:42.375Z,96.50
2022-10-07T21:04:12.964Z,96.69
2022-10-07T21:06:41.268Z,97.08
2022-10-07T21:09:10.271Z,97.32
2022-10-07T21:11:38.736Z,96.99
2022-10-07T21:14:06.576Z,97.09
2022-10-07T21:16:35.226Z,97.03
2022-10-07T21:19:02.933Z,97.30
2022-10-07T21:21:31.872Z,97.37
2022-10-07T21:24:00.505Z,97.34
2022-10-07T21:26:28.171Z,97.13
2022-10-07T21:28:55.726Z,97.30
2022-10-07T21:31:23.548Z,97.08
2022-10-07T21:33:52.935Z,97.27
2022-10-07T21:36:23.617Z,97.33
2022-10-07T21:38:58.213Z,97.26
2022-10-07T21:41:30.834Z,97.16
2022-10-07T21:43:59.257Z,97.35
2022-10-07T21:46:28.551Z,97.07
2022-10-07T21:48:57.229Z,97.08
2022-10-07T21:51:26.753Z,97.27
2022-10-07T21:53:58.012Z,97.24
2022-10-07T21:56:26.937Z,97.25
2022-10-07T21:58:54.918Z,97.24
2022-10-07T22:01:25.442Z,97.40
2022-10-07T22:03:55.348Z,97.69
2022-10-07T22:06:43.354Z,97.35
2022-10-07T22:09:12.142Z,97.20
2022-10-07T22:11:39.828Z,97.34
2022-10-07T22:14:12.241Z,97.30
2022-10-07T22:16:40.363Z,97.50
2022-10-07T22:19:07.963Z,97.77
2022-10-07T22:21:39.779Z,97.63
2022-10-07T22:24:09.171Z,98.02
2022-10-07T22:26:40.579Z,97.92
2022-10-07T22:29:09.763Z,98.29
2022-10-07T22:31:37.942Z,98.19
2022-10-07T22:34:06.588Z,98.50
2022-10-07T22:36:33.661Z,98.21
2022-10-07T22:39:01.410Z,98.45
2022-10-07T22:41:29.314Z,98.37
2022-10-07T22:43:59.039Z,98.52
2022-10-07T22:46:28.379Z,98.77
2022-10-07T22:48:57.803Z,98.99
2022-10-07T22:51:28.234Z,99.29
2022-10-07T22:53:57.430Z,99.55
2022-10-07T22:56:27.839Z,99.69
2022-10-07T22:58:59.637Z,99.70
2022-10-07T23:01:29.292Z,99.29
2022-10-07T23:03:58.711Z,99.37
2022-10-07T23:06:26.380Z,99.69
2022-10-07T23:08:53.941Z,99.96
2022-10-07T23:11:23.784Z,99.59
2022-10-07T23:13:51.919Z,99.36
2022-10-07T23:16:23.120Z,99.15
2022-10-07T23:18:53.427Z,99.11
2022-10-07T23:21:23.458Z,99.38
2022-10-07T23:23:53.202Z,99.55
2022-10-07T23:26:23.116Z,99.55
2022-10-07T23:28:52.080Z,99.87
2022-10-07T23:31:22.583Z,100.00
2022-10-07T23:33:52.324Z,100.00
2022-10-07T23:36:21.248Z,100.00
2022-10-07T23:38:50.190Z,100.00
2022-10-07T23:41:20.257Z,100.00
2022-10-07T23:43:49.061Z,100.00
2022-10-07T23:46:17.063Z,99.93
2022-10-07T23:48:46.775Z,99.85
2022-10-07T23:51:16.887Z,99.79
2022-10-07T23:53:44.696Z,99.76
2022-10-07T23:56:12.344Z,100.00
2022-10-07T23:58:39.900Z,100.00
